createdAt,value
2016-04-26T00:00:39.234Z,3.41
2016-04-26T00:01:39.065Z,3.41
2016-04-26T00:02:39.192Z,3.44
2016-04-26T00:03:39.180Z,3.42
2016-04-26T00:04:39.167Z,3.46
2016-04-26T00:05:39.158Z,3.39
2016-04-26T00:06:39.113Z,3.45
2016-04-26T00:07:39.101Z,3.42
2016-04-26T00:08:39.087Z,3.46
2016-04-26T00:09:39.075Z,3.41
2016-04-26T00:10:39.046Z,3.45
2016-04-26T00:11:39.033Z,3.48
2016-04-26T00:12:39.020Z,3.45
2016-04-26T00:13:38.992Z,3.35
2016-04-26T00:14:38.979Z,3.46
2016-04-26T00:15:38.950Z,3.45
2016-04-26T00:16:38.797Z,3.41
2016-04-26T00:17:38.925Z,3.46
2016-04-26T00:18:38.896Z,3.48
2016-04-26T00:19:38.883Z,3.49
2016-04-26T00:20:38.870Z,3.41
2016-04-26T00:21:38.872Z,3.44
2016-04-26T00:22:38.828Z,3.41
2016-04-26T00:23:38.816Z,3.39
2016-04-26T00:24:38.803Z,3.41
2016-04-26T00:25:38.774Z,3.41
2016-04-26T00:26:38.777Z,3.39
2016-04-26T00:27:38.749Z,3.45
2016-04-26T00:28:38.719Z,3.45
2016-04-26T00:29:38.722Z,3.37
2016-04-26T00:30:38.694Z,3.41
2016-04-26T00:31:39.103Z,3.35
2016-04-26T00:32:38.668Z,3.3
2016-04-26T00:33:38.655Z,3.27
2016-04-26T00:34:38.626Z,3.41
2016-04-26T00:35:38.598Z,3.39
2016-04-26T00:36:38.585Z,3.37
2016-04-26T00:37:38.572Z,3.3
2016-04-26T00:38:38.559Z,3.35
2016-04-26T00:39:38.531Z,3.35
2016-04-26T00:40:38.518Z,3.32
2016-04-26T00:41:38.489Z,3.33
2016-04-26T00:42:38.476Z,3.27
2016-04-26T00:43:38.447Z,3.32
2016-04-26T00:44:38.450Z,3.26
2016-04-26T00:45:38.422Z,3.37
2016-04-26T00:46:39.549Z,3.27
2016-04-26T00:47:38.396Z,3.35
2016-04-26T00:48:38.367Z,3.29
2016-04-26T00:49:38.353Z,3.29
2016-04-26T00:50:38.342Z,3.3
2016-04-26T00:51:38.313Z,3.25
2016-04-26T00:52:38.300Z,3.37
2016-04-26T00:53:38.272Z,3.29
2016-04-26T00:54:38.258Z,3.35
2016-04-26T00:55:38.245Z,3.3
2016-04-26T00:56:38.247Z,3.26
2016-04-26T00:57:38.204Z,3.27
2016-04-26T00:58:38.175Z,3.19
2016-04-26T00:59:38.178Z,3.25
2016-04-26T01:00:38.149Z,3.12
2016-04-26T01:01:38.168Z,3.19
2016-04-26T01:02:38.123Z,3.07
2016-04-26T01:03:38.111Z,3.11
2016-04-26T01:04:38.083Z,3.14
2016-04-26T01:05:38.069Z,3.11
2016-04-26T01:06:38.041Z,3.09
2016-04-26T01:07:38.043Z,3.09
2016-04-26T01:08:38.015Z,3.02
2016-04-26T01:09:37.986Z,3.04
2016-04-26T01:10:37.974Z,3.07
2016-04-26T01:11:37.960Z,3.08
2016-04-26T01:12:37.931Z,3.07
2016-04-26T01:13:37.919Z,3.07
2016-04-26T01:14:37.921Z,2.96
2016-04-26T01:15:37.893Z,3
2016-04-26T01:16:37.740Z,3.05
2016-04-26T01:17:37.851Z,3.02
2016-04-26T01:18:37.823Z,2.97
2016-04-26T01:19:37.810Z,3.02
2016-04-26T01:20:37.781Z,2.97
2016-04-26T01:21:37.768Z,2.94
2016-04-26T01:22:37.756Z,3.01
2016-04-26T01:23:37.742Z,3
2016-04-26T01:24:37.714Z,3.04
2016-04-26T01:25:37.701Z,2.97
2016-04-26T01:26:37.672Z,3.01
2016-04-26T01:27:37.660Z,2.97
2016-04-26T01:28:37.647Z,2.93
2016-04-26T01:29:37.634Z,3
2016-04-26T01:30:37.605Z,2.93
2016-04-26T01:31:37.436Z,3.02
2016-04-26T01:32:37.579Z,3.02
2016-04-26T01:33:37.551Z,3
2016-04-26T01:34:37.538Z,3
2016-04-26T01:35:36.775Z,2.97
2016-04-26T01:36:37.496Z,2.94
2016-04-26T01:37:37.468Z,2.91
2016-04-26T01:38:37.471Z,3.01
2016-04-26T01:39:37.458Z,2.93
2016-04-26T01:40:37.445Z,2.96
2016-04-26T01:41:37.415Z,2.91
2016-04-26T01:42:37.388Z,2.94
2016-04-26T01:43:37.374Z,2.87
2016-04-26T01:44:37.346Z,2.89
2016-04-26T01:45:37.333Z,2.78
2016-04-26T01:46:36.571Z,2.79
2016-04-26T01:47:37.307Z,2.79
2016-04-26T01:48:37.294Z,2.87
2016-04-26T01:49:37.265Z,2.73
2016-04-26T01:50:37.237Z,2.76
2016-04-26T01:51:37.224Z,2.73
2016-04-26T01:52:37.208Z,2.66
2016-04-26T01:53:37.196Z,2.66
2016-04-26T01:54:37.167Z,2.54
2016-04-26T01:55:37.138Z,2.55
2016-04-26T01:56:37.126Z,2.54
2016-04-26T01:57:37.113Z,2.55
2016-04-26T01:58:37.099Z,2.44
2016-04-26T01:59:37.072Z,2.4
2016-04-26T02:00:37.058Z,2.4
2016-04-26T02:01:37.030Z,2.53
2016-04-26T02:02:37.613Z,2.42
2016-04-26T02:03:37.004Z,2.42
2016-04-26T02:04:36.975Z,2.39
2016-04-26T02:05:36.963Z,2.28
2016-04-26T02:06:36.949Z,2.37
2016-04-26T02:07:36.922Z,2.28
2016-04-26T02:08:36.893Z,2.37
2016-04-26T02:09:36.895Z,2.35
2016-04-26T02:10:36.867Z,2.35
2016-04-26T02:11:36.869Z,2.33
2016-04-26T02:12:36.824Z,2.3
2016-04-26T02:13:36.812Z,2.35
2016-04-26T02:14:36.784Z,2.3
2016-04-26T02:15:36.770Z,2.26
2016-04-26T02:16:37.054Z,2.33
2016-04-26T02:17:36.479Z,2.29
2016-04-26T02:18:36.716Z,2.25
2016-04-26T02:19:36.703Z,2.29
2016-04-26T02:20:36.690Z,2.37
2016-04-26T02:21:36.662Z,2.26
2016-04-26T02:22:36.654Z,2.3
2016-04-26T02:23:36.627Z,2.21
2016-04-26T02:24:35.864Z,2.3
2016-04-26T02:25:36.586Z,2.21
2016-04-26T02:26:36.572Z,2.19
2016-04-26T02:27:36.544Z,2.15
2016-04-26T02:28:36.532Z,2.19
2016-04-26T02:29:36.502Z,2.22
2016-04-26T02:30:36.490Z,2.14
2016-04-26T02:31:36.460Z,2.09
2016-04-26T02:32:36.480Z,2.09
2016-04-26T02:33:36.435Z,2.09
2016-04-26T02:34:36.406Z,2.09
2016-04-26T02:35:36.409Z,2.09
2016-04-26T02:36:36.381Z,2.08
2016-04-26T02:37:36.368Z,2.08
2016-04-26T02:38:36.339Z,2
2016-04-26T02:39:36.327Z,2
2016-04-26T02:40:36.329Z,2.08
2016-04-26T02:41:36.317Z,2
2016-04-26T02:42:36.319Z,2
2016-04-26T02:43:36.242Z,2
2016-04-26T02:44:36.215Z,2.07
2016-04-26T02:45:36.203Z,2.01
2016-04-26T02:46:36.033Z,2
2016-04-26T02:47:36.503Z,2.04
2016-04-26T02:48:36.164Z,1.9
2016-04-26T02:49:36.134Z,1.97
2016-04-26T02:50:36.121Z,2
2016-04-26T02:51:36.093Z,2.03
2016-04-26T02:52:36.081Z,2.01
2016-04-26T02:53:36.052Z,1.93
2016-04-26T02:54:36.038Z,2
2016-04-26T02:55:36.026Z,1.99
2016-04-26T02:56:36.027Z,2.04
2016-04-26T02:57:35.985Z,2.01
2016-04-26T02:58:35.971Z,2.04
2016-04-26T02:59:35.943Z,1.97
2016-04-26T03:00:35.930Z,1.92
2016-04-26T03:01:36.824Z,1.92
2016-04-26T03:02:36.794Z,1.97
2016-04-26T03:03:35.859Z,1.88
2016-04-26T03:04:35.847Z,1.97
2016-04-26T03:05:35.834Z,1.99
2016-04-26T03:06:35.805Z,1.9
2016-04-26T03:07:35.807Z,1.89
2016-04-26T03:08:35.779Z,1.95
2016-04-26T03:09:35.767Z,1.95
2016-04-26T03:10:35.737Z,2
2016-04-26T03:11:35.709Z,1.88
2016-04-26T03:12:35.696Z,1.88
2016-04-26T03:13:35.684Z,1.93
2016-04-26T03:14:35.655Z,1.93
2016-04-26T03:15:35.642Z,1.89
2016-04-26T03:16:35.613Z,1.85
2016-04-26T03:17:35.430Z,1.92
2016-04-26T03:18:35.573Z,1.93
2016-04-26T03:19:35.560Z,1.89
2016-04-26T03:20:35.547Z,1.88
2016-04-26T03:21:35.518Z,1.9
2016-04-26T03:22:35.521Z,1.97
2016-04-26T03:23:35.476Z,1.85
2016-04-26T03:24:35.308Z,2
2016-04-26T03:25:35.467Z,2.01
2016-04-26T03:26:35.423Z,1.99
2016-04-26T03:27:35.425Z,1.85
2016-04-26T03:28:35.397Z,2.03
2016-04-26T03:29:35.384Z,2.04
2016-04-26T03:30:35.355Z,2.11
2016-04-26T03:31:35.452Z,2.01
2016-04-26T03:32:35.876Z,2.07
2016-04-26T03:33:35.285Z,2.12
2016-04-26T03:34:35.272Z,2.09
2016-04-26T03:35:35.275Z,2.09
2016-04-26T03:36:35.246Z,2.12
2016-04-26T03:37:35.218Z,2.18
2016-04-26T03:38:35.189Z,2.17
2016-04-26T03:39:35.177Z,2.21
2016-04-26T03:40:35.163Z,2.21
2016-04-26T03:41:35.135Z,2.26
2016-04-26T03:42:35.122Z,2.26
2016-04-26T03:43:35.124Z,2.35
2016-04-26T03:44:35.080Z,2.33
2016-04-26T03:45:35.067Z,2.3
2016-04-26T03:46:35.055Z,2.29
2016-04-26T03:47:35.213Z,2.29
2016-04-26T03:48:35.012Z,2.35
2016-04-26T03:49:35.016Z,2.32
2016-04-26T03:50:34.971Z,2.39
2016-04-26T03:51:34.943Z,2.33
2016-04-26T03:52:34.930Z,2.3
2016-04-26T03:53:34.917Z,2.25
2016-04-26T03:54:34.904Z,2.26
2016-04-26T03:55:34.875Z,2.39
2016-04-26T03:56:34.878Z,2.32
2016-04-26T03:57:34.834Z,2.36
2016-04-26T03:58:34.820Z,2.29
2016-04-26T03:59:34.793Z,2.33
2016-04-26T04:00:34.795Z,2.29
2016-04-26T04:01:34.782Z,2.36
2016-04-26T04:02:34.723Z,2.32
2016-04-26T04:03:34.725Z,2.21
2016-04-26T04:04:34.711Z,2.37
2016-04-26T04:05:34.684Z,2.29
2016-04-26T04:06:34.671Z,2.29
2016-04-26T04:07:34.689Z,2.28
2016-04-26T04:08:34.630Z,2.29
2016-04-26T04:09:34.616Z,2.26
2016-04-26T04:10:34.598Z,2.36
2016-04-26T04:11:34.569Z,2.22
2016-04-26T04:12:34.556Z,2.29
2016-04-26T04:13:34.543Z,2.28
2016-04-26T04:14:34.562Z,2.32
2016-04-26T04:15:34.501Z,2.29
2016-04-26T04:16:34.489Z,2.25
2016-04-26T04:17:35.101Z,2.3
2016-04-26T04:18:34.462Z,2.19
2016-04-26T04:19:34.418Z,2.19
2016-04-26T04:20:34.406Z,2.21
2016-04-26T04:21:34.392Z,2.22
2016-04-26T04:22:34.395Z,2.12
2016-04-26T04:23:34.351Z,2.22
2016-04-26T04:24:34.339Z,2.22
2016-04-26T04:25:34.309Z,2.07
2016-04-26T04:26:34.297Z,2.03
2016-04-26T04:27:34.284Z,2.03
2016-04-26T04:28:34.255Z,2.03
2016-04-26T04:29:34.242Z,1.97
2016-04-26T04:30:34.213Z,1.99
2016-04-26T04:31:34.201Z,2.04
2016-04-26T04:32:34.189Z,2.07
2016-04-26T04:33:34.160Z,2
2016-04-26T04:34:34.381Z,1.92
2016-04-26T04:35:34.133Z,1.93
2016-04-26T04:36:34.105Z,1.9
2016-04-26T04:37:34.076Z,1.9
2016-04-26T04:38:34.063Z,1.88
2016-04-26T04:39:34.035Z,1.84
2016-04-26T04:40:34.038Z,1.95
2016-04-26T04:41:34.024Z,1.81
2016-04-26T04:42:33.996Z,1.92
2016-04-26T04:43:33.983Z,1.93
2016-04-26T04:44:33.954Z,1.99
2016-04-26T04:45:33.926Z,2
2016-04-26T04:46:33.913Z,1.92
2016-04-26T04:47:34.556Z,1.89
2016-04-26T04:48:33.871Z,2.07
2016-04-26T04:49:33.859Z,2.03
2016-04-26T04:50:33.845Z,2.07
2016-04-26T04:51:33.833Z,2.12
2016-04-26T04:52:33.789Z,2.25
2016-04-26T04:53:33.791Z,2.29
2016-04-26T04:54:33.762Z,2.42
2016-04-26T04:55:33.750Z,2.54
2016-04-26T04:56:33.736Z,2.78
2016-04-26T04:57:33.724Z,2.83
2016-04-26T04:58:33.695Z,3
2016-04-26T04:59:33.683Z,3.17
2016-04-26T05:00:33.669Z,3.27
2016-04-26T05:01:33.641Z,3.35
2016-04-26T05:02:34.034Z,3.45
2016-04-26T05:03:33.615Z,3.52
2016-04-26T05:04:33.586Z,3.69
2016-04-26T05:05:33.589Z,3.77
2016-04-26T05:06:33.560Z,3.75
2016-04-26T05:07:33.548Z,3.91
2016-04-26T05:08:33.518Z,4.16
2016-04-26T05:09:33.522Z,4.16
2016-04-26T05:10:33.494Z,4.16
2016-04-26T05:11:33.480Z,4.02
2016-04-26T05:12:33.468Z,3.87
2016-04-26T05:13:33.454Z,3.88
2016-04-26T05:14:33.441Z,4.08
2016-04-26T05:15:33.413Z,4.35
2016-04-26T05:16:33.400Z,4.45
2016-04-26T05:17:34.106Z,4.39
2016-04-26T05:18:33.373Z,4.5
2016-04-26T05:19:33.362Z,4.77
2016-04-26T05:20:33.349Z,4.96
2016-04-26T05:21:33.320Z,5.29
2016-04-26T05:22:33.307Z,5.29
2016-04-26T05:23:33.294Z,5.52
2016-04-26T05:24:33.281Z,5.96
2016-04-26T05:25:33.284Z,5.9
2016-04-26T05:26:33.255Z,6.16
2016-04-26T05:27:33.242Z,6.32
2016-04-26T05:28:33.229Z,6.46
2016-04-26T05:29:33.217Z,6.66
2016-04-26T05:30:33.219Z,6.82
2016-04-26T05:31:33.097Z,6.84
2016-04-26T05:32:33.678Z,7.1
2016-04-26T05:33:33.180Z,7.43
2016-04-26T05:34:33.183Z,7.8
2016-04-26T05:35:33.170Z,7.95
2016-04-26T05:36:33.157Z,8.01
2016-04-26T05:37:33.144Z,7.89
2016-04-26T05:38:33.130Z,7.88
2016-04-26T05:39:33.133Z,7.79
2016-04-26T05:40:33.105Z,7.83
2016-04-26T05:41:33.092Z,8.12
2016-04-26T05:42:33.095Z,8.16
2016-04-26T05:43:33.066Z,8.06
2016-04-26T05:44:33.069Z,7.39
2016-04-26T05:45:32.321Z,7.12
2016-04-26T05:46:33.059Z,7.04
2016-04-26T05:47:33.326Z,7.21
2016-04-26T05:48:33.032Z,7.36
2016-04-26T05:49:33.020Z,7.53
2016-04-26T05:50:33.007Z,7.36
2016-04-26T05:51:33.010Z,7.43
2016-04-26T05:52:32.997Z,7.5
2016-04-26T05:53:33.000Z,7.55
2016-04-26T05:54:32.971Z,7.5
2016-04-26T05:55:32.958Z,7.25
2016-04-26T05:56:32.961Z,7.15
2016-04-26T05:57:32.952Z,6.82
2016-04-26T05:58:36.568Z,6.86
2016-04-26T05:59:32.931Z,7.04
2016-04-26T06:00:37.105Z,7.21
2016-04-26T06:01:35.039Z,7.58
2016-04-26T06:02:33.183Z,7.74
2016-04-26T06:03:32.904Z,7.94
2016-04-26T06:04:32.891Z,8.33
2016-04-26T06:05:32.879Z,8.35
2016-04-26T06:06:32.881Z,8.6
2016-04-26T06:07:32.869Z,8.96
2016-04-26T06:08:32.730Z,8.31
2016-04-26T06:09:32.842Z,7.92
2016-04-26T06:10:32.844Z,7.81
2016-04-26T06:11:32.832Z,7.94
2016-04-26T06:12:32.819Z,8.17
2016-04-26T06:13:32.712Z,8.43
2016-04-26T06:14:32.809Z,8.55
2016-04-26T06:15:32.827Z,8.22
2016-04-26T06:16:32.830Z,7.84
2016-04-26T06:17:32.646Z,7.53
2016-04-26T06:18:32.773Z,7.72
2016-04-26T06:19:32.010Z,7.58
2016-04-26T06:20:32.762Z,7.55
2016-04-26T06:21:32.734Z,7.77
2016-04-26T06:22:32.740Z,8.1
2016-04-26T06:23:32.727Z,8.48
2016-04-26T06:24:32.714Z,8.28
2016-04-26T06:25:32.701Z,8.07
2016-04-26T06:26:32.688Z,7.84
2016-04-26T06:27:32.690Z,7.39
2016-04-26T06:28:32.678Z,7.35
2016-04-26T06:29:32.665Z,7.15
2016-04-26T06:30:32.652Z,7.04
2016-04-26T06:31:32.687Z,6.86
2016-04-26T06:32:33.282Z,6.79
2016-04-26T06:33:32.629Z,6.58
2016-04-26T06:34:32.615Z,6.35
2016-04-26T06:35:32.587Z,6.09
2016-04-26T06:36:32.590Z,6.06
2016-04-26T06:37:32.561Z,6.13
2016-04-26T06:38:32.564Z,6.4
2016-04-26T06:39:32.550Z,6.63
2016-04-26T06:40:32.554Z,6.79
2016-04-26T06:41:32.541Z,6.97
2016-04-26T06:42:32.543Z,6.68
2016-04-26T06:43:32.515Z,6.66
2016-04-26T06:44:32.486Z,6.63
2016-04-26T06:45:32.489Z,6.53
2016-04-26T06:46:32.477Z,6.4
2016-04-26T06:47:32.697Z,6.39
2016-04-26T06:48:32.450Z,6.7
2016-04-26T06:49:32.452Z,7.19
2016-04-26T06:50:32.440Z,7.32
2016-04-26T06:51:32.411Z,7.55
2016-04-26T06:52:31.663Z,7.66
2016-04-26T06:53:32.401Z,7.72
2016-04-26T06:54:32.373Z,8.31
2016-04-26T06:55:32.376Z,8.92
2016-04-26T06:56:32.362Z,8.92
2016-04-26T06:57:32.381Z,8.67
2016-04-26T06:58:32.351Z,8.09
2016-04-26T06:59:32.401Z,8.06
2016-04-26T07:00:32.326Z,8.01
2016-04-26T07:01:32.375Z,7.7
2016-04-26T07:02:32.034Z,7.72
2016-04-26T07:03:32.303Z,7.86
2016-04-26T07:04:32.290Z,7.72
2016-04-26T07:05:32.278Z,8.01
2016-04-26T07:06:32.265Z,7.95
2016-04-26T07:07:32.251Z,7.35
2016-04-26T07:08:32.239Z,7.43
2016-04-26T07:09:32.273Z,7.33
2016-04-26T07:10:32.228Z,7.18
2016-04-26T07:11:32.215Z,6.89
2016-04-26T07:12:32.202Z,6.84
2016-04-26T07:13:32.189Z,7
2016-04-26T07:14:32.208Z,6.81
2016-04-26T07:15:32.164Z,6.45
2016-04-26T07:16:32.150Z,6.43
2016-04-26T07:17:31.981Z,6.42
2016-04-26T07:18:32.125Z,6.28
2016-04-26T07:19:32.112Z,6.13
2016-04-26T07:20:32.146Z,6.11
2016-04-26T07:21:32.086Z,6.08
2016-04-26T07:22:32.073Z,6.11
2016-04-26T07:23:32.065Z,5.91
2016-04-26T07:24:32.036Z,5.94
2016-04-26T07:25:32.039Z,5.88
2016-04-26T07:26:32.042Z,5.91
2016-04-26T07:27:32.013Z,5.94
2016-04-26T07:28:32.079Z,5.88
2016-04-26T07:29:32.081Z,5.9
2016-04-26T07:30:31.990Z,5.88
2016-04-26T07:31:31.961Z,5.93
2016-04-26T07:32:32.745Z,5.91
2016-04-26T07:33:32.076Z,5.87
2016-04-26T07:34:31.906Z,5.84
2016-04-26T07:35:31.895Z,5.81
2016-04-26T07:36:31.880Z,5.93
2016-04-26T07:37:31.867Z,6.08
2016-04-26T07:38:31.856Z,5.88
2016-04-26T07:39:31.827Z,5.91
2016-04-26T07:40:31.830Z,5.86
2016-04-26T07:41:31.816Z,5.78
2016-04-26T07:42:31.897Z,5.68
2016-04-26T07:43:31.775Z,5.55
2016-04-26T07:44:31.761Z,5.61
2016-04-26T07:45:32.249Z,5.45
2016-04-26T07:46:31.720Z,5.4
2016-04-26T07:47:32.505Z,5.42
2016-04-26T07:48:32.054Z,5.47
2016-04-26T07:49:31.682Z,5.5
2016-04-26T07:50:31.685Z,5.39
2016-04-26T07:51:31.655Z,5.34
2016-04-26T07:52:31.643Z,5.47
2016-04-26T07:53:31.630Z,5.51
2016-04-26T07:54:31.632Z,5.42
2016-04-26T07:55:31.588Z,5.48
2016-04-26T07:56:31.590Z,5.42
2016-04-26T07:57:31.579Z,5.42
2016-04-26T07:58:31.550Z,5.5
2016-04-26T07:59:31.537Z,5.42
2016-04-26T08:00:31.540Z,5.57
2016-04-26T08:01:31.511Z,5.61
2016-04-26T08:02:31.497Z,5.52
2016-04-26T08:03:31.360Z,5.5
2016-04-26T08:04:31.456Z,5.63
2016-04-26T08:05:31.443Z,5.66
2016-04-26T08:06:31.445Z,5.76
2016-04-26T08:07:31.417Z,5.75
2016-04-26T08:08:31.405Z,5.88
2016-04-26T08:09:31.392Z,5.94
2016-04-26T08:10:31.223Z,6.12
2016-04-26T08:11:31.381Z,6.28
2016-04-26T08:12:31.181Z,6.4
2016-04-26T08:13:31.325Z,6.24
2016-04-26T08:14:31.311Z,6.31
2016-04-26T08:15:31.314Z,6.35
2016-04-26T08:16:31.285Z,6.46
2016-04-26T08:17:31.272Z,6.61
2016-04-26T08:18:31.557Z,6.7
2016-04-26T08:19:31.247Z,6.92
2016-04-26T08:20:31.234Z,7.24
2016-04-26T08:21:31.221Z,7.39
2016-04-26T08:22:31.208Z,7.29
2016-04-26T08:23:31.196Z,7.28
2016-04-26T08:24:31.182Z,7.06
2016-04-26T08:25:31.169Z,7.04
2016-04-26T08:26:31.156Z,6.89
2016-04-26T08:27:31.159Z,6.88
2016-04-26T08:28:31.115Z,6.82
2016-04-26T08:29:31.124Z,6.99
2016-04-26T08:30:31.098Z,6.99
2016-04-26T08:31:31.127Z,6.89
2016-04-26T08:32:31.156Z,7
2016-04-26T08:33:31.685Z,6.99
2016-04-26T08:34:31.214Z,6.99
2016-04-26T08:35:31.226Z,6.86
2016-04-26T08:36:31.227Z,6.91
2016-04-26T08:37:31.245Z,6.96
2016-04-26T08:38:31.247Z,7
2016-04-26T08:39:31.265Z,6.97
2016-04-26T08:40:31.250Z,6.89
2016-04-26T08:41:31.244Z,6.97
2016-04-26T08:42:31.220Z,7.25
2016-04-26T08:43:31.227Z,7.32
2016-04-26T08:44:31.221Z,7.33
2016-04-26T08:45:31.213Z,7.4
2016-04-26T08:46:31.217Z,7.29
2016-04-26T08:47:31.190Z,7.46
2016-04-26T08:48:31.945Z,7.47
2016-04-26T08:49:31.169Z,7.37
2016-04-26T08:50:31.158Z,7.7
2016-04-26T08:51:31.145Z,7.98
2016-04-26T08:52:35.258Z,8.1
2016-04-26T08:53:31.105Z,8.01
2016-04-26T08:54:31.094Z,8.04
2016-04-26T08:55:31.081Z,7.81
2016-04-26T08:56:31.084Z,7.73
2016-04-26T08:57:33.181Z,7.74
2016-04-26T08:58:31.044Z,7.54
2016-04-26T08:59:31.047Z,7.47
2016-04-26T09:00:31.065Z,7.55
2016-04-26T09:01:31.021Z,7.64
2016-04-26T09:02:33.242Z,7.63
2016-04-26T09:03:32.715Z,7.73
2016-04-26T09:04:30.982Z,7.64
2016-04-26T09:05:30.969Z,7.73
2016-04-26T09:06:30.957Z,7.84
2016-04-26T09:07:32.350Z,7.81
2016-04-26T09:08:30.962Z,7.83
2016-04-26T09:09:31.026Z,7.86
2016-04-26T09:10:30.920Z,7.8
2016-04-26T09:11:30.892Z,7.61
2016-04-26T09:12:30.879Z,7.77
2016-04-26T09:13:30.881Z,8.25
2016-04-26T09:14:30.712Z,8.76
2016-04-26T09:15:30.839Z,9.04
2016-04-26T09:16:30.827Z,9.32
2016-04-26T09:17:30.830Z,9.76
2016-04-26T09:18:30.848Z,9.38
2016-04-26T09:19:30.803Z,9.19
2016-04-26T09:20:30.791Z,8.91
2016-04-26T09:21:30.825Z,8.6
2016-04-26T09:22:30.766Z,8.58
2016-04-26T09:23:30.752Z,8.43
2016-04-26T09:24:30.738Z,8.4
2016-04-26T09:25:43.461Z,7.99
2016-04-26T09:26:30.729Z,7.81
2016-04-26T09:27:30.700Z,7.74
2016-04-26T09:28:30.688Z,7.5
2016-04-26T09:29:30.674Z,7.35
2016-04-26T09:30:30.662Z,7.07
2016-04-26T09:31:30.648Z,7.03
2016-04-26T09:32:30.635Z,7
2016-04-26T09:33:30.498Z,7.03
2016-04-26T09:34:30.610Z,7.21
2016-04-26T09:35:30.596Z,7.22
2016-04-26T09:36:30.600Z,7.32
2016-04-26T09:37:30.571Z,7.32
2016-04-26T09:38:30.558Z,7.45
2016-04-26T09:39:30.545Z,7.47
2016-04-26T09:40:30.579Z,7.6
2016-04-26T09:41:30.504Z,7.6
2016-04-26T09:42:30.506Z,7.79
2016-04-26T09:43:30.478Z,7.6
2016-04-26T09:44:30.481Z,7.45
2016-04-26T09:45:30.467Z,7.42
2016-04-26T09:46:30.455Z,7.43
2016-04-26T09:47:30.457Z,7.25
2016-04-26T09:48:30.413Z,7.24
2016-04-26T09:49:30.416Z,7.25
2016-04-26T09:50:30.481Z,7.36
2016-04-26T09:51:30.406Z,7.39
2016-04-26T09:52:30.377Z,7.43
2016-04-26T09:53:30.364Z,7.54
2016-04-26T09:54:30.352Z,7.55
2016-04-26T09:55:30.339Z,7.77
2016-04-26T09:56:30.324Z,7.79
2016-04-26T09:57:30.312Z,7.72
2016-04-26T09:58:30.299Z,7.66
2016-04-26T09:59:30.271Z,7.58
2016-04-26T10:00:30.258Z,7.53
2016-04-26T10:01:30.260Z,7.42
2016-04-26T10:02:30.248Z,7.29
2016-04-26T10:03:30.235Z,7.32
2016-04-26T10:04:30.206Z,7.42
2016-04-26T10:05:30.193Z,7.42
2016-04-26T10:06:30.180Z,7.29
2016-04-26T10:07:30.168Z,7.35
2016-04-26T10:08:30.154Z,7.74
2016-04-26T10:09:30.157Z,8.38
2016-04-26T10:10:30.159Z,8.82
2016-04-26T10:11:30.132Z,8.85
2016-04-26T10:12:30.118Z,8.78
2016-04-26T10:13:30.106Z,8.78
2016-04-26T10:14:30.076Z,8.89
2016-04-26T10:15:30.079Z,8.81
2016-04-26T10:16:30.066Z,8.7
2016-04-26T10:17:30.054Z,8.67
2016-04-26T10:18:30.009Z,8.95
2016-04-26T10:19:30.028Z,9.56
2016-04-26T10:20:30.031Z,9.94
2016-04-26T10:21:30.002Z,10.19
2016-04-26T10:22:29.988Z,10.47
2016-04-26T10:23:29.992Z,10.72
2016-04-26T10:24:29.995Z,10.69
2016-04-26T10:25:29.965Z,10.19
2016-04-26T10:26:29.953Z,9.9
2016-04-26T10:27:29.956Z,9.62
2016-04-26T10:28:29.943Z,9.48
2016-04-26T10:29:29.930Z,9.3
2016-04-26T10:30:29.916Z,9.33
2016-04-26T10:31:29.967Z,9.3
2016-04-26T10:32:29.938Z,9.3
2016-04-26T10:33:32.332Z,9.29
2016-04-26T10:34:31.756Z,9.48
2016-04-26T10:35:29.899Z,9.63
2016-04-26T10:36:29.854Z,9.96
2016-04-26T10:37:29.858Z,10.17
2016-04-26T10:38:29.828Z,10.2
2016-04-26T10:39:29.816Z,10.61
2016-04-26T10:40:29.818Z,10.81
2016-04-26T10:41:29.806Z,10.94
2016-04-26T10:42:29.808Z,11.12
2016-04-26T10:43:29.811Z,11.36
2016-04-26T10:44:29.782Z,11.51
2016-04-26T10:45:29.770Z,11.18
2016-04-26T10:46:29.787Z,10.74
2016-04-26T10:47:29.603Z,10.91
2016-04-26T10:48:30.465Z,10.81
2016-04-26T10:49:29.749Z,11.22
2016-04-26T10:50:29.737Z,11.84
2016-04-26T10:51:29.755Z,12.42
2016-04-26T10:52:29.725Z,12.69
2016-04-26T10:53:29.713Z,12.93
2016-04-26T10:54:29.794Z,12.83
2016-04-26T10:55:29.702Z,12.75
2016-04-26T10:56:29.690Z,12.64
2016-04-26T10:57:29.677Z,12.79
2016-04-26T10:58:29.680Z,12.24
2016-04-26T10:59:29.682Z,12.21
2016-04-26T11:00:29.685Z,12.4
2016-04-26T11:01:29.657Z,12.03
2016-04-26T11:02:29.503Z,12.04
2016-04-26T11:03:29.350Z,12.21
2016-04-26T11:04:31.211Z,12.31
2016-04-26T11:05:29.635Z,12.46
2016-04-26T11:06:29.624Z,12.37
2016-04-26T11:07:29.610Z,12.19
2016-04-26T11:08:29.613Z,12.06
2016-04-26T11:09:29.616Z,11.84
2016-04-26T11:10:29.602Z,11.37
2016-04-26T11:11:29.605Z,10.75
2016-04-26T11:12:29.576Z,10.49
2016-04-26T11:13:29.580Z,10.66
2016-04-26T11:14:29.567Z,10.63
2016-04-26T11:15:29.554Z,10.75
2016-04-26T11:16:29.556Z,11.12
2016-04-26T11:17:29.543Z,11.63
2016-04-26T11:18:29.984Z,12.01
2016-04-26T11:19:30.080Z,12.13
2016-04-26T11:20:29.520Z,12.57
2016-04-26T11:21:29.507Z,12.69
2016-04-26T11:22:29.509Z,12.6
2016-04-26T11:23:29.497Z,12.64
2016-04-26T11:24:29.500Z,12.35
2016-04-26T11:25:29.487Z,12.47
2016-04-26T11:26:29.474Z,12.64
2016-04-26T11:27:29.461Z,12.21
2016-04-26T11:28:29.464Z,12.31
2016-04-26T11:29:29.467Z,12.29
2016-04-26T11:30:29.453Z,11.59
2016-04-26T11:31:29.441Z,11.52
2016-04-26T11:32:29.474Z,11.66
2016-04-26T11:33:29.446Z,11.51
2016-04-26T11:34:29.855Z,11.48
2016-04-26T11:35:29.420Z,11.24
2016-04-26T11:36:29.407Z,11
2016-04-26T11:37:29.393Z,10.83
2016-04-26T11:38:29.382Z,10.69
2016-04-26T11:39:29.368Z,10.35
2016-04-26T11:40:29.371Z,9.63
2016-04-26T11:41:29.358Z,9.53
2016-04-26T11:42:29.345Z,9.48
2016-04-26T11:43:29.347Z,9.3
2016-04-26T11:44:29.334Z,9.54
2016-04-26T11:45:32.166Z,9.62
2016-04-26T11:46:29.309Z,9.56
2016-04-26T11:47:29.296Z,9.66
2016-04-26T11:48:29.487Z,9.79
2016-04-26T11:49:30.223Z,10.02
2016-04-26T11:50:29.273Z,10.29
2016-04-26T11:51:29.384Z,10.41
2016-04-26T11:52:29.309Z,10.39
2016-04-26T11:53:29.234Z,10.53
2016-04-26T11:54:29.221Z,10.37
2016-04-26T11:55:29.209Z,10.17
2016-04-26T11:56:29.258Z,10.57
2016-04-26T11:57:29.197Z,10.72
2016-04-26T11:58:29.028Z,10.63
2016-04-26T11:59:29.188Z,10.47
2016-04-26T12:00:29.158Z,10.49
2016-04-26T12:01:29.146Z,10.58
2016-04-26T12:02:29.133Z,10.49
2016-04-26T12:03:28.824Z,10.49
2016-04-26T12:04:29.497Z,10.27
2016-04-26T12:05:29.110Z,10.22
2016-04-26T12:06:29.113Z,10.32
2016-04-26T12:07:29.100Z,10.22
2016-04-26T12:08:29.071Z,10.56
2016-04-26T12:09:29.058Z,10.49
2016-04-26T12:10:29.045Z,10.79
2016-04-26T12:11:29.049Z,11.44
2016-04-26T12:12:29.051Z,11.69
2016-04-26T12:13:29.037Z,11.47
2016-04-26T12:14:29.024Z,11.67
2016-04-26T12:15:29.012Z,12
2016-04-26T12:16:28.998Z,11.83
2016-04-26T12:17:28.987Z,11.84
2016-04-26T12:18:29.114Z,11.57
2016-04-26T12:19:29.742Z,10.97
2016-04-26T12:20:28.962Z,10.81
2016-04-26T12:21:28.950Z,10.61
2016-04-26T12:22:28.952Z,10.26
2016-04-26T12:23:28.939Z,9.76
2016-04-26T12:24:28.926Z,9.41
2016-04-26T12:25:28.914Z,9.11
2016-04-26T12:26:28.900Z,8.77
2016-04-26T12:27:28.888Z,8.33
2016-04-26T12:28:28.750Z,8.04
2016-04-26T12:29:28.862Z,7.72
2016-04-26T12:30:28.849Z,7.4
2016-04-26T12:31:28.852Z,7.24
2016-04-26T12:32:28.823Z,7.28
2016-04-26T12:33:31.216Z,7.35
2016-04-26T12:34:29.063Z,7.37
2016-04-26T12:35:28.815Z,7.47
2016-04-26T12:36:28.803Z,7.47
2016-04-26T12:37:28.774Z,7.54
2016-04-26T12:38:28.761Z,7.63
2016-04-26T12:39:28.749Z,7.83
2016-04-26T12:40:28.735Z,8.07
2016-04-26T12:41:28.722Z,8.13
2016-04-26T12:42:28.710Z,8.28
2016-04-26T12:43:28.697Z,8.3
2016-04-26T12:44:28.684Z,8.19
2016-04-26T12:45:28.670Z,8.23
2016-04-26T12:46:28.658Z,8.31
2016-04-26T12:47:28.646Z,8.56
2016-04-26T12:48:29.148Z,8.84
2016-04-26T12:49:30.150Z,8.92
2016-04-26T12:50:28.607Z,8.96
2016-04-26T12:51:28.593Z,9
2016-04-26T12:52:28.581Z,8.82
2016-04-26T12:53:28.567Z,8.91
2016-04-26T12:54:28.554Z,9.01
2016-04-26T12:55:28.542Z,8.95
2016-04-26T12:56:28.528Z,9.03
2016-04-26T12:57:28.515Z,9.06
2016-04-26T12:58:28.503Z,9.12
2016-04-26T12:59:28.506Z,9.3
2016-04-26T13:00:28.492Z,9.61
2016-04-26T13:01:28.480Z,9.66
2016-04-26T13:02:28.467Z,9.74
2016-04-26T13:03:29.328Z,9.9
2016-04-26T13:04:28.378Z,10.32
2016-04-26T13:05:28.428Z,10.74
2016-04-26T13:06:28.414Z,10.81
2016-04-26T13:07:28.402Z,11.09
2016-04-26T13:08:28.404Z,11.24
2016-04-26T13:09:28.377Z,11.47
2016-04-26T13:10:28.379Z,11.75
2016-04-26T13:11:28.381Z,12.01
2016-04-26T13:12:28.368Z,11.98
2016-04-26T13:13:28.372Z,11.76
2016-04-26T13:14:28.342Z,11.95
2016-04-26T13:15:28.329Z,12.1
2016-04-26T13:16:28.332Z,12.39
2016-04-26T13:17:28.324Z,12.61
2016-04-26T13:18:28.295Z,12.25
2016-04-26T13:19:28.174Z,11.57